Time;durP1;ratioP1;P1;durP2;ratioP2;P2;SDS_P1;SDS_P2;PMS_P1;PMS_P2;Temp;Humidity;BMP_temperature;BMP_pressure;BME280_temperature;BME280_humidity;BME280_pressure;Samples;Min_cycle;Max_cycle;Signal;HPM_P1;HPM_P2
2023/07/23 00:02:04;;;;;;;5.75;5.05;;;;;;;;;;5116188;28;20055;-82
2023/07/23 00:04:31;;;;;;;6.38;4.70;;;;;;;;;;5115862;28;20047;-82
2023/07/23 00:06:59;;;;;;;5.35;4.88;;;;;;;;;;5115464;28;20044;-82
2023/07/23 00:09:26;;;;;;;4.93;4.53;;;;;;;;;;5115730;28;20499;-81
2023/07/23 00:11:53;;;;;;;7.97;5.22;;;;;;;;;;5113696;28;20047;-81
2023/07/23 00:14:21;;;;;;;8.13;4.95;;;;;;;;;;5115311;28;20051;-82
2023/07/23 00:16:48;;;;;;;5.72;5.22;;;;;;;;;;5115252;28;20058;-80
2023/07/23 00:19:19;;;;;;;11.93;5.40;;;;;;;;;;5114871;27;20048;-80
2023/07/23 00:21:47;;;;;;;5.72;5.18;;;;;;;;;;5113287;28;20101;-83
2023/07/23 00:24:15;;;;;;;7.38;4.95;;;;;;;;;;5114684;28;20043;-83
2023/07/23 00:26:42;;;;;;;5.78;4.93;;;;;;;;;;5114060;28;20051;-82
2023/07/23 00:29:10;;;;;;;5.80;5.13;;;;;;;;;;5112462;28;20052;-81
2023/07/23 00:31:37;;;;;;;5.90;5.38;;;;;;;;;;5111910;28;20109;-80
2023/07/23 00:34:06;;;;;;;6.15;4.40;;;;;;;;;;5111974;28;20070;-81
2023/07/23 00:36:34;;;;;;;5.22;4.80;;;;;;;;;;5122387;28;20066;-80
2023/07/23 00:39:03;;;;;;;5.50;4.60;;;;;;;;;;5124643;28;20052;-83
2023/07/23 00:41:30;;;;;;;5.22;4.85;;;;;;;;;;5124569;28;20050;-80
2023/07/23 00:43:57;;;;;;;6.03;5.18;;;;;;;;;;5116356;28;20052;-83
2023/07/23 00:46:25;;;;;;;7.32;4.65;;;;;;;;;;5115652;28;20096;-83
2023/07/23 00:48:52;;;;;;;4.93;4.28;;;;;;;;;;5116104;28;20059;-83
2023/07/23 00:51:20;;;;;;;5.22;4.80;;;;;;;;;;5115373;28;20052;-83
2023/07/23 00:53:48;;;;;;;4.90;4.50;;;;;;;;;;5114953;28;20495;-83
2023/07/23 00:56:15;;;;;;;7.10;4.63;;;;;;;;;;5115277;28;20047;-83
2023/07/23 00:58:43;;;;;;;5.13;4.70;;;;;;;;;;5115956;28;20548;-83
2023/07/23 01:01:10;;;;;;;5.38;4.70;;;;;;;;;;5115298;28;20089;-83
2023/07/23 01:03:37;;;;;;;5.13;4.55;;;;;;;;;;5115927;28;20245;-81
2023/07/23 01:06:05;;;;;;;6.78;5.05;;;;;;;;;;5115735;28;20127;-82
2023/07/23 01:08:33;;;;;;;5.80;4.85;;;;;;;;;;5114725;28;20101;-81
2023/07/23 01:11:01;;;;;;;5.40;4.90;;;;;;;;;;5115504;28;20097;-82
2023/07/23 01:13:29;;;;;;;4.95;4.50;;;;;;;;;;5114257;28;20051;-83
2023/07/23 01:15:57;;;;;;;5.20;4.68;;;;;;;;;;5115325;28;20069;-83
2023/07/23 01:18:25;;;;;;;8.27;4.63;;;;;;;;;;5113580;28;20054;-83
2023/07/23 01:20:53;;;;;;;7.20;4.85;;;;;;;;;;5114285;28;20097;-83
2023/07/23 01:23:20;;;;;;;6.57;4.10;;;;;;;;;;5118700;28;20048;-83
2023/07/23 01:25:47;;;;;;;7.03;4.75;;;;;;;;;;5119483;28;20048;-82
2023/07/23 01:28:15;;;;;;;4.90;4.40;;;;;;;;;;5119273;28;20044;-82
2023/07/23 01:30:42;;;;;;;5.88;4.32;;;;;;;;;;5118019;28;20069;-82
2023/07/23 01:33:10;;;;;;;5.32;4.82;;;;;;;;;;5118570;28;20044;-82
2023/07/23 01:35:37;;;;;;;5.05;4.40;;;;;;;;;;5118477;28;20047;-81
2023/07/23 01:38:05;;;;;;;5.15;4.60;;;;;;;;;;5117870;28;20051;-82
2023/07/23 01:40:32;;;;;;;6.95;4.50;;;;;;;;;;5117712;28;20097;-81
2023/07/23 01:42:59;;;;;;;4.38;4.07;;;;;;;;;;5117685;28;20047;-83
2023/07/23 01:45:29;;;;;;;4.80;4.30;;;;;;;;;;5117950;28;20464;-82
2023/07/23 01:47:57;;;;;;;5.25;4.75;;;;;;;;;;5117762;28;20080;-82
2023/07/23 01:50:24;;;;;;;5.45;4.15;;;;;;;;;;5116792;28;20044;-82
2023/07/23 01:52:51;;;;;;;4.95;4.50;;;;;;;;;;5116356;28;20054;-82
2023/07/23 01:55:18;;;;;;;4.57;4.22;;;;;;;;;;5118198;28;20552;-82
2023/07/23 01:57:46;;;;;;;4.43;4.03;;;;;;;;;;5117530;28;20059;-80
2023/07/23 02:00:13;;;;;;;4.90;4.30;;;;;;;;;;5116280;28;20363;-82
2023/07/23 02:02:40;;;;;;;5.28;4.35;;;;;;;;;;5115708;28;20047;-81
2023/07/23 02:05:08;;;;;;;5.30;4.90;;;;;;;;;;5115332;28;20054;-79
2023/07/23 02:07:35;;;;;;;5.68;4.57;;;;;;;;;;5116224;27;20062;-81
2023/07/23 02:10:03;;;;;;;5.63;4.50;;;;;;;;;;5114811;28;20105;-81
2023/07/23 02:12:30;;;;;;;5.22;4.68;;;;;;;;;;5116045;28;20043;-81
2023/07/23 02:14:57;;;;;;;5.13;4.72;;;;;;;;;;5114705;28;20055;-81
2023/07/23 02:17:25;;;;;;;5.13;4.63;;;;;;;;;;5114194;28;20511;-81
2023/07/23 02:19:52;;;;;;;5.35;4.93;;;;;;;;;;5115277;28;20051;-81
2023/07/23 02:22:19;;;;;;;6.43;4.95;;;;;;;;;;5115717;28;20548;-81
2023/07/23 02:24:47;;;;;;;5.22;4.55;;;;;;;;;;5114451;28;20044;-81
2023/07/23 02:27:14;;;;;;;7.38;5.13;;;;;;;;;;5115359;28;20221;-81
2023/07/23 02:29:42;;;;;;;8.65;4.75;;;;;;;;;;5115641;28;20051;-80
2023/07/23 02:32:10;;;;;;;5.85;4.63;;;;;;;;;;5115528;28;20160;-80
2023/07/23 02:34:38;;;;;;;4.88;4.50;;;;;;;;;;5115289;28;20044;-81
2023/07/23 02:37:05;;;;;;;4.80;4.40;;;;;;;;;;5114449;28;20048;-82
2023/07/23 02:39:32;;;;;;;4.82;4.43;;;;;;;;;;5116075;28;20469;-80
2023/07/23 02:41:59;;;;;;;5.38;4.88;;;;;;;;;;5116256;28;20097;-81
2023/07/23 02:44:26;;;;;;;5.25;4.40;;;;;;;;;;5115535;28;20043;-82
2023/07/23 02:46:54;;;;;;;6.05;4.70;;;;;;;;;;5114402;28;20086;-80
2023/07/23 02:49:21;;;;;;;4.50;4.20;;;;;;;;;;5114403;28;20506;-80
2023/07/23 02:51:48;;;;;;;5.25;4.78;;;;;;;;;;5114463;28;20055;-82
2023/07/23 02:54:15;;;;;;;6.90;4.43;;;;;;;;;;5114506;28;20044;-82
2023/07/23 02:56:43;;;;;;;5.55;4.45;;;;;;;;;;5115308;28;20108;-79
2023/07/23 02:59:10;;;;;;;6.32;4.45;;;;;;;;;;5117269;28;20048;-82
2023/07/23 03:01:37;;;;;;;4.85;4.40;;;;;;;;;;5117612;28;20055;-81
2023/07/23 03:04:05;;;;;;;5.75;4.40;;;;;;;;;;5119295;28;20048;-82
2023/07/23 03:06:32;;;;;;;6.95;4.60;;;;;;;;;;5117807;28;20044;-82
2023/07/23 03:08:59;;;;;;;4.47;4.07;;;;;;;;;;5116833;28;20108;-82
2023/07/23 03:11:26;;;;;;;6.75;4.28;;;;;;;;;;5116903;28;20098;-81
2023/07/23 03:13:54;;;;;;;5.85;4.15;;;;;;;;;;5117455;28;20535;-82
2023/07/23 03:16:21;;;;;;;4.25;3.85;;;;;;;;;;5115652;28;20077;-82
2023/07/23 03:18:48;;;;;;;4.93;4.45;;;;;;;;;;5115150;28;20051;-82
2023/07/23 03:21:16;;;;;;;6.05;4.18;;;;;;;;;;5116738;28;20401;-82
2023/07/23 03:23:43;;;;;;;6.20;4.32;;;;;;;;;;5116439;28;20108;-81
2023/07/23 03:26:10;;;;;;;5.82;4.38;;;;;;;;;;5113974;28;20051;-80
2023/07/23 03:28:37;;;;;;;8.55;4.60;;;;;;;;;;5115528;28;20047;-82
2023/07/23 03:31:04;;;;;;;4.53;4.10;;;;;;;;;;5114494;28;20043;-81
2023/07/23 03:33:32;;;;;;;6.40;4.30;;;;;;;;;;5115363;28;20048;-80
2023/07/23 03:35:59;;;;;;;8.48;4.68;;;;;;;;;;5113670;28;20059;-81
2023/07/23 03:38:26;;;;;;;7.40;4.40;;;;;;;;;;5114027;28;20120;-81
2023/07/23 03:40:54;;;;;;;5.30;4.50;;;;;;;;;;5113645;28;20047;-81
2023/07/23 03:43:21;;;;;;;4.63;4.22;;;;;;;;;;5114972;28;20097;-81
2023/07/23 03:45:48;;;;;;;5.25;4.28;;;;;;;;;;5112228;28;20495;-81
2023/07/23 03:48:15;;;;;;;4.97;4.57;;;;;;;;;;5113408;28;20469;-80
2023/07/23 03:50:43;;;;;;;4.43;4.03;;;;;;;;;;5113277;28;20081;-80
2023/07/23 03:53:10;;;;;;;4.47;4.15;;;;;;;;;;5112867;28;20191;-80
2023/07/23 03:55:37;;;;;;;5.90;4.22;;;;;;;;;;5112628;28;20465;-80
2023/07/23 03:58:04;;;;;;;6.35;4.72;;;;;;;;;;5114583;28;20062;-80
2023/07/23 04:00:32;;;;;;;5.15;4.50;;;;;;;;;;5112399;28;20564;-80
2023/07/23 04:02:59;;;;;;;6.30;4.47;;;;;;;;;;5113224;28;20130;-81
2023/07/23 04:05:26;;;;;;;5.35;4.90;;;;;;;;;;5112313;28;20134;-81
2023/07/23 04:07:53;;;;;;;8.48;4.90;;;;;;;;;;5111935;28;20046;-79
2023/07/23 04:10:21;;;;;;;6.25;5.13;;;;;;;;;;5111932;28;20075;-81
2023/07/23 04:12:48;;;;;;;7.45;4.50;;;;;;;;;;5112228;28;20636;-81
2023/07/23 04:15:15;;;;;;;7.60;4.53;;;;;;;;;;5111986;28;20055;-81
2023/07/23 04:17:42;;;;;;;5.10;4.38;;;;;;;;;;5113060;27;20051;-82
2023/07/23 04:20:10;;;;;;;4.70;4.30;;;;;;;;;;5111813;28;20044;-79
2023/07/23 04:22:37;;;;;;;4.95;4.55;;;;;;;;;;5112841;28;20052;-80
2023/07/23 04:25:04;;;;;;;5.25;4.72;;;;;;;;;;5113032;28;20472;-81
2023/07/23 04:27:32;;;;;;;5.70;5.20;;;;;;;;;;5111311;28;20077;-81
2023/07/23 04:29:59;;;;;;;4.97;4.47;;;;;;;;;;5111882;28;20040;-81
2023/07/23 04:32:26;;;;;;;4.20;3.90;;;;;;;;;;5112902;28;20040;-80
2023/07/23 04:34:53;;;;;;;4.78;4.10;;;;;;;;;;5114893;28;20043;-82
2023/07/23 04:37:21;;;;;;;3.70;3.40;;;;;;;;;;5116043;28;20404;-82
2023/07/23 04:39:48;;;;;;;5.07;4.22;;;;;;;;;;5116592;28;20546;-82
2023/07/23 04:42:15;;;;;;;4.15;3.83;;;;;;;;;;5115129;28;20044;-82
2023/07/23 04:44:42;;;;;;;4.20;3.90;;;;;;;;;;5114437;28;20075;-82
2023/07/23 04:47:10;;;;;;;4.15;3.85;;;;;;;;;;5114056;28;20126;-82
2023/07/23 04:49:37;;;;;;;4.40;4.00;;;;;;;;;;5113567;28;20047;-83
2023/07/23 04:52:04;;;;;;;5.05;3.53;;;;;;;;;;5113526;28;20043;-82
2023/07/23 04:54:31;;;;;;;4.25;3.92;;;;;;;;;;5115320;28;20048;-81
2023/07/23 04:56:59;;;;;;;4.53;4.13;;;;;;;;;;5116189;28;20055;-80
2023/07/23 04:59:26;;;;;;;5.80;4.45;;;;;;;;;;5117685;28;20062;-81
2023/07/23 05:01:53;;;;;;;5.55;4.40;;;;;;;;;;5118653;28;20116;-80
2023/07/23 05:04:20;;;;;;;7.00;4.20;;;;;;;;;;5118319;28;20053;-79
2023/07/23 05:06:48;;;;;;;4.10;3.70;;;;;;;;;;5116536;28;20116;-82
2023/07/23 05:09:15;;;;;;;4.68;3.80;;;;;;;;;;5117940;28;20055;-82
2023/07/23 05:11:42;;;;;;;4.53;4.13;;;;;;;;;;5116312;28;20475;-81
2023/07/23 05:14:10;;;;;;;6.38;3.83;;;;;;;;;;5116196;28;20075;-79
2023/07/23 05:16:37;;;;;;;4.00;3.70;;;;;;;;;;5116021;28;20081;-81
2023/07/23 05:19:04;;;;;;;4.18;3.40;;;;;;;;;;5117387;28;20052;-81
2023/07/23 05:21:34;;;;;;;4.82;3.70;;;;;;;;;;5115842;28;20044;-80
2023/07/23 05:24:02;;;;;;;3.90;3.60;;;;;;;;;;5115634;28;20048;-80
2023/07/23 05:26:29;;;;;;;6.68;3.40;;;;;;;;;;5115343;28;20503;-79
2023/07/23 05:28:56;;;;;;;4.10;3.20;;;;;;;;;;5115445;28;20052;-81
2023/07/23 05:31:23;;;;;;;3.28;3.08;;;;;;;;;;5115372;28;20051;-81
2023/07/23 05:33:51;;;;;;;4.10;3.22;;;;;;;;;;5115303;28;20191;-81
2023/07/23 05:36:18;;;;;;;3.25;2.80;;;;;;;;;;5119490;28;20051;-80
2023/07/23 05:38:45;;;;;;;2.95;2.17;;;;;;;;;;5125905;28;20556;-82
2023/07/23 05:41:13;;;;;;;4.47;2.60;;;;;;;;;;5121817;28;20100;-82
2023/07/23 05:43:40;;;;;;;2.70;2.50;;;;;;;;;;5118714;28;20052;-82
2023/07/23 05:46:08;;;;;;;3.80;2.42;;;;;;;;;;5118716;28;20445;-83
2023/07/23 05:48:35;;;;;;;3.53;2.85;;;;;;;;;;5117643;28;20043;-82
2023/07/23 05:51:02;;;;;;;5.93;2.90;;;;;;;;;;5117672;28;20047;-81
2023/07/23 05:53:30;;;;;;;3.58;2.42;;;;;;;;;;5117908;28;20101;-82
2023/07/23 05:55:57;;;;;;;5.45;2.58;;;;;;;;;;5117096;28;20219;-81
2023/07/23 05:58:27;;;;;;;2.58;2.17;;;;;;;;;;5116273;28;20072;-83
2023/07/23 06:00:54;;;;;;;2.78;2.58;;;;;;;;;;5117929;27;20075;-82
2023/07/23 06:03:21;;;;;;;3.78;2.38;;;;;;;;;;5118045;28;20048;-81
2023/07/23 06:05:49;;;;;;;3.28;2.47;;;;;;;;;;5115991;28;20054;-82
2023/07/23 06:08:16;;;;;;;2.90;2.45;;;;;;;;;;5116895;28;20564;-83
2023/07/23 06:10:43;;;;;;;8.52;3.17;;;;;;;;;;5117288;28;20047;-82
2023/07/23 06:13:10;;;;;;;8.48;3.15;;;;;;;;;;5117626;28;20048;-82
2023/07/23 06:15:38;;;;;;;4.32;2.45;;;;;;;;;;5118444;28;20044;-82
2023/07/23 06:18:05;;;;;;;4.80;3.10;;;;;;;;;;5118361;28;20303;-82
2023/07/23 06:20:32;;;;;;;3.53;2.10;;;;;;;;;;5116551;28;20048;-83
2023/07/23 06:23:00;;;;;;;4.85;2.60;;;;;;;;;;5117025;28;20059;-83
2023/07/23 06:25:27;;;;;;;3.58;2.58;;;;;;;;;;5117392;28;20075;-82
2023/07/23 06:27:54;;;;;;;2.85;2.22;;;;;;;;;;5115854;28;20055;-82
2023/07/23 06:30:22;;;;;;;3.33;2.65;;;;;;;;;;5116319;28;20040;-82
2023/07/23 06:32:49;;;;;;;2.97;2.20;;;;;;;;;;5117312;28;20047;-81
2023/07/23 06:35:16;;;;;;;2.47;2.28;;;;;;;;;;5115835;28;20047;-84
2023/07/23 06:37:44;;;;;;;5.13;2.20;;;;;;;;;;5116039;28;20058;-82
2023/07/23 06:40:11;;;;;;;2.55;2.30;;;;;;;;;;5117283;28;20492;-82
2023/07/23 06:42:38;;;;;;;2.28;2.17;;;;;;;;;;5116181;28;20055;-83
2023/07/23 06:45:05;;;;;;;2.75;2.30;;;;;;;;;;5115246;28;20058;-79
2023/07/23 06:47:33;;;;;;;5.38;2.97;;;;;;;;;;5114907;28;20135;-81
2023/07/23 06:50:00;;;;;;;5.63;3.30;;;;;;;;;;5116849;28;20044;-81
2023/07/23 06:52:27;;;;;;;4.43;2.90;;;;;;;;;;5115418;28;20047;-82
2023/07/23 06:54:55;;;;;;;8.75;3.70;;;;;;;;;;5115516;28;20491;-83
2023/07/23 06:57:25;;;;;;;12.93;4.85;;;;;;;;;;5114639;28;20054;-81
2023/07/23 06:59:52;;;;;;;9.63;3.58;;;;;;;;;;5115270;28;20055;-81
2023/07/23 07:02:19;;;;;;;6.47;2.80;;;;;;;;;;5114978;28;20066;-80
2023/07/23 07:04:46;;;;;;;6.35;2.30;;;;;;;;;;5114409;28;20077;-81
2023/07/23 07:07:14;;;;;;;2.25;2.08;;;;;;;;;;5114252;28;20115;-82
2023/07/23 07:09:41;;;;;;;6.88;3.20;;;;;;;;;;5115490;28;20083;-81
2023/07/23 07:12:08;;;;;;;6.68;3.03;;;;;;;;;;5113949;28;20104;-81
2023/07/23 07:14:36;;;;;;;6.97;3.15;;;;;;;;;;5114042;28;20043;-81
2023/07/23 07:17:03;;;;;;;2.65;2.45;;;;;;;;;;5114030;28;20152;-81
2023/07/23 07:19:32;;;;;;;4.10;2.40;;;;;;;;;;5115299;28;20506;-82
2023/07/23 07:21:59;;;;;;;3.35;2.65;;;;;;;;;;5114061;28;20055;-82
2023/07/23 07:24:27;;;;;;;4.30;2.38;;;;;;;;;;5113094;28;20047;-81
2023/07/23 07:26:55;;;;;;;3.53;2.63;;;;;;;;;;5113998;28;20418;-80
2023/07/23 07:29:22;;;;;;;2.60;2.40;;;;;;;;;;5113273;28;20052;-80
2023/07/23 07:31:49;;;;;;;7.65;1.85;;;;;;;;;;5114246;28;20104;-80
2023/07/23 07:34:17;;;;;;;2.45;2.25;;;;;;;;;;5114116;28;20562;-82
2023/07/23 07:36:44;;;;;;;3.35;2.42;;;;;;;;;;5114606;28;20086;-85
2023/07/23 07:39:13;;;;;;;3.65;2.15;;;;;;;;;;5113252;28;20051;-82
2023/07/23 07:41:40;;;;;;;2.00;1.90;;;;;;;;;;5113284;28;20048;-81
2023/07/23 07:44:07;;;;;;;2.20;2.00;;;;;;;;;;5114057;28;20551;-82
2023/07/23 07:46:34;;;;;;;2.35;2.25;;;;;;;;;;5113713;28;20502;-82
2023/07/23 07:49:02;;;;;;;3.30;2.03;;;;;;;;;;5117216;28;20092;-81
2023/07/23 07:51:29;;;;;;;2.00;1.80;;;;;;;;;;5117209;28;20048;-80
2023/07/23 07:53:57;;;;;;;2.00;1.90;;;;;;;;;;5117822;28;20044;-80
2023/07/23 07:56:24;;;;;;;3.30;1.90;;;;;;;;;;5116824;28;20105;-80
2023/07/23 07:58:51;;;;;;;2.78;2.00;;;;;;;;;;5115757;28;20101;-81
2023/07/23 08:01:19;;;;;;;3.58;2.20;;;;;;;;;;5115941;28;20051;-81
2023/07/23 08:03:46;;;;;;;4.05;2.50;;;;;;;;;;5115507;28;20055;-82
2023/07/23 08:06:14;;;;;;;2.25;2.00;;;;;;;;;;5115283;28;20055;-81
2023/07/23 08:08:41;;;;;;;3.28;2.42;;;;;;;;;;5115399;28;20047;-82
2023/07/23 08:11:09;;;;;;;5.63;2.47;;;;;;;;;;5115106;28;20472;-82
2023/07/23 08:13:39;;;;;;;2.45;2.30;;;;;;;;;;5114383;28;20396;-83
2023/07/23 08:16:07;;;;;;;2.60;2.50;;;;;;;;;;5116185;28;20047;-83
2023/07/23 08:18:35;;;;;;;3.72;2.05;;;;;;;;;;5113587;28;20054;-81
2023/07/23 08:21:02;;;;;;;2.33;2.13;;;;;;;;;;5114132;28;20423;-81
2023/07/23 08:23:29;;;;;;;6.32;2.30;;;;;;;;;;5113693;28;20101;-81
2023/07/23 08:25:58;;;;;;;2.65;2.40;;;;;;;;;;5114550;28;20120;-82
2023/07/23 08:28:29;;;;;;;2.20;2.10;;;;;;;;;;5114275;28;20051;-81
2023/07/23 08:30:57;;;;;;;4.13;2.17;;;;;;;;;;5116062;28;20118;-82
2023/07/23 08:33:27;;;;;;;3.63;2.28;;;;;;;;;;5115474;28;20089;-78
2023/07/23 08:35:55;;;;;;;8.73;2.30;;;;;;;;;;5114684;28;20050;-83
2023/07/23 08:38:23;;;;;;;3.47;2.15;;;;;;;;;;5115584;28;20047;-81
2023/07/23 08:40:58;;;;;;;5.43;2.08;;;;;;;;;;5115520;28;20126;-81
2023/07/23 08:43:36;;;;;;;2.83;2.25;;;;;;;;;;5114933;28;20051;-80
2023/07/23 08:46:03;;;;;;;2.78;2.15;;;;;;;;;;5113163;28;20051;-79
2023/07/23 08:48:43;;;;;;;3.35;2.25;;;;;;;;;;5114515;28;20044;-80
2023/07/23 08:51:10;;;;;;;4.85;3.10;;;;;;;;;;5113218;28;20044;-82
2023/07/23 08:53:38;;;;;;;6.80;6.18;;;;;;;;;;5112538;28;20043;-81
2023/07/23 08:56:05;;;;;;;4.03;2.35;;;;;;;;;;5113684;28;20048;-80
2023/07/23 08:58:32;;;;;;;2.55;1.80;;;;;;;;;;5112658;28;20097;-80
2023/07/23 09:01:00;;;;;;;2.50;2.10;;;;;;;;;;5112734;28;20047;-82
2023/07/23 09:03:27;;;;;;;2.40;2.28;;;;;;;;;;5114188;28;20515;-81
2023/07/23 09:05:54;;;;;;;2.08;1.80;;;;;;;;;;5113583;28;20051;-79
2023/07/23 09:08:22;;;;;;;3.83;2.10;;;;;;;;;;5112469;28;20096;-81
2023/07/23 09:10:49;;;;;;;9.00;2.63;;;;;;;;;;5112998;28;20101;-80
2023/07/23 09:13:16;;;;;;;8.07;2.95;;;;;;;;;;5112010;28;20048;-78
2023/07/23 09:15:52;;;;;;;5.15;2.03;;;;;;;;;;5111770;28;20468;-79
2023/07/23 09:18:20;;;;;;;2.55;2.13;;;;;;;;;;5113746;28;20055;-83
2023/07/23 09:20:50;;;;;;;3.65;1.95;;;;;;;;;;5113425;28;20074;-82
2023/07/23 09:23:18;;;;;;;9.40;2.28;;;;;;;;;;5114786;28;20056;-82
2023/07/23 09:25:46;;;;;;;6.32;2.65;;;;;;;;;;5117785;28;20079;-83
2023/07/23 09:28:23;;;;;;;5.60;1.95;;;;;;;;;;5117938;28;20048;-82
2023/07/23 09:30:54;;;;;;;2.55;1.75;;;;;;;;;;5119931;28;20096;-80
2023/07/23 09:33:21;;;;;;;3.72;2.22;;;;;;;;;;5115819;28;20051;-81
2023/07/23 09:35:49;;;;;;;4.70;2.10;;;;;;;;;;5115196;28;20055;-81
2023/07/23 09:38:16;;;;;;;2.10;1.90;;;;;;;;;;5115418;28;20048;-81
2023/07/23 09:40:48;;;;;;;1.98;1.73;;;;;;;;;;5117212;27;20086;-80
2023/07/23 09:43:15;;;;;;;7.40;2.38;;;;;;;;;;5115911;28;20493;-81
2023/07/23 09:45:42;;;;;;;1.70;1.60;;;;;;;;;;5119357;28;20107;-81
2023/07/23 09:48:10;;;;;;;3.38;2.20;;;;;;;;;;5118944;28;20047;-81
2023/07/23 09:50:43;;;;;;;;;;;;;;;;;;5119847;28;20055;-82
2023/07/23 09:53:10;;;;;;;1.70;1.60;;;;;;;;;;5118821;28;19920;-81
2023/07/23 09:55:38;;;;;;;2.70;1.95;;;;;;;;;;5117817;28;20044;-82
2023/07/23 09:58:06;;;;;;;2.20;2.00;;;;;;;;;;5117169;28;20048;-81
2023/07/23 10:00:34;;;;;;;3.80;1.98;;;;;;;;;;5118028;27;20092;-83
2023/07/23 10:03:02;;;;;;;1.92;1.80;;;;;;;;;;5119484;28;20052;-83
2023/07/23 10:05:34;;;;;;;3.65;1.70;;;;;;;;;;5118917;28;20174;-78
2023/07/23 10:08:03;;;;;;;3.47;1.70;;;;;;;;;;5119649;27;20044;-79
2023/07/23 10:10:31;;;;;;;4.30;2.20;;;;;;;;;;5119160;28;20483;-80
2023/07/23 10:12:58;;;;;;;1.67;1.55;;;;;;;;;;5120006;28;20055;-80
2023/07/23 10:15:25;;;;;;;4.78;2.20;;;;;;;;;;5117166;28;20092;-80
2023/07/23 10:17:55;;;;;;;5.38;1.80;;;;;;;;;;5116671;28;20059;-82
2023/07/23 10:20:22;;;;;;;7.45;1.63;;;;;;;;;;5117510;28;20050;-82
2023/07/23 10:22:50;;;;;;;6.53;1.60;;;;;;;;;;5118495;27;20082;-80
2023/07/23 10:25:34;;;;;;;5.07;1.83;;;;;;;;;;5117833;28;20051;-80
2023/07/23 10:28:08;;;;;;;4.40;1.52;;;;;;;;;;5118739;28;20047;-79
2023/07/23 10:30:39;;;;;;;2.70;1.70;;;;;;;;;;5116051;28;20055;-80
2023/07/23 10:33:09;;;;;;;1.75;1.65;;;;;;;;;;5118257;28;20088;-83
2023/07/23 10:35:55;;;;;;;3.28;1.60;;;;;;;;;;5116552;28;20130;-80
2023/07/23 10:38:22;;;;;;;1.30;1.20;;;;;;;;;;5115768;28;20130;-79
2023/07/23 10:40:49;;;;;;;6.38;1.40;;;;;;;;;;5116582;28;20112;-81
2023/07/23 10:43:17;;;;;;;2.97;1.70;;;;;;;;;;5115625;28;20058;-81
2023/07/23 10:46:03;;;;;;;1.75;1.50;;;;;;;;;;5114841;28;20063;-80
2023/07/23 10:48:50;;;;;;;1.48;1.35;;;;;;;;;;5121937;28;20453;-81
2023/07/23 10:51:22;;;;;;;1.67;1.38;;;;;;;;;;5121059;28;20089;-81
2023/07/23 10:54:02;;;;;;;1.17;1.17;;;;;;;;;;5120946;28;20047;-82
2023/07/23 10:56:34;;;;;;;5.20;1.60;;;;;;;;;;5120085;28;20469;-83
2023/07/23 10:59:07;;;;;;;3.30;1.50;;;;;;;;;;5119824;28;20112;-82
2023/07/23 11:01:36;;;;;;;3.95;1.55;;;;;;;;;;5123528;28;20051;-81
2023/07/23 11:04:10;;;;;;;8.13;1.63;;;;;;;;;;5122116;28;20054;-83
2023/07/23 11:06:41;;;;;;;14.30;2.00;;;;;;;;;;5123070;28;20056;-82
2023/07/23 11:09:12;;;;;;;1.58;1.48;;;;;;;;;;5121042;28;20099;-82
2023/07/23 11:11:41;;;;;;;1.58;1.08;;;;;;;;;;5122458;28;20556;-82
2023/07/23 11:14:17;;;;;;;2.25;1.20;;;;;;;;;;5120550;28;20103;-81
2023/07/23 11:16:45;;;;;;;3.55;1.40;;;;;;;;;;5118887;28;20043;-82
2023/07/23 11:19:13;;;;;;;2.05;1.35;;;;;;;;;;5120761;28;20053;-82
2023/07/23 11:21:44;;;;;;;14.52;4.70;;;;;;;;;;5118014;28;20518;-82
2023/07/23 11:24:12;;;;;;;1.30;1.20;;;;;;;;;;5119429;28;20051;-83
2023/07/23 11:26:40;;;;;;;2.15;1.45;;;;;;;;;;5117177;28;20067;-81
2023/07/23 11:29:08;;;;;;;2.55;1.23;;;;;;;;;;5118347;28;20522;-81
2023/07/23 11:31:35;;;;;;;2.63;1.30;;;;;;;;;;5119457;28;20127;-84
2023/07/23 11:34:03;;;;;;;1.70;0.90;;;;;;;;;;5118583;28;20097;-80
2023/07/23 11:36:30;;;;;;;6.30;1.27;;;;;;;;;;5117639;28;20044;-82
2023/07/23 11:38:57;;;;;;;7.38;1.60;;;;;;;;;;5120972;28;20110;-81
2023/07/23 11:41:38;;;;;;;2.08;1.30;;;;;;;;;;5120583;28;20056;-82
2023/07/23 11:44:06;;;;;;;1.10;1.00;;;;;;;;;;5117444;28;20055;-79
2023/07/23 11:46:41;;;;;;;1.27;1.17;;;;;;;;;;5117332;28;20051;-81
2023/07/23 11:49:09;;;;;;;2.00;1.10;;;;;;;;;;5117561;28;20051;-80
2023/07/23 11:51:37;;;;;;;1.00;1.00;;;;;;;;;;5117863;28;20051;-82
2023/07/23 11:54:07;;;;;;;1.02;1.00;;;;;;;;;;5118315;28;20044;-81
2023/07/23 11:56:45;;;;;;;1.67;1.10;;;;;;;;;;5116188;28;20054;-81
2023/07/23 11:59:14;;;;;;;2.00;1.02;;;;;;;;;;5118058;28;20055;-82
2023/07/23 12:01:45;;;;;;;3.97;1.10;;;;;;;;;;5116449;28;20055;-82
2023/07/23 12:04:12;;;;;;;1.05;1.05;;;;;;;;;;5115583;28;20055;-80
2023/07/23 12:06:40;;;;;;;2.45;1.02;;;;;;;;;;5114606;28;20083;-83
2023/07/23 12:09:11;;;;;;;2.30;1.35;;;;;;;;;;5115340;28;20048;-82
2023/07/23 12:11:39;;;;;;;1.55;0.93;;;;;;;;;;5117558;28;20047;-81
2023/07/23 12:14:08;;;;;;;4.85;1.00;;;;;;;;;;5117189;28;20050;-81
2023/07/23 12:16:42;;;;;;;2.30;1.17;;;;;;;;;;5115578;28;20066;-83
2023/07/23 12:19:11;;;;;;;3.50;1.20;;;;;;;;;;5118283;28;20055;-81
2023/07/23 12:21:40;;;;;;;2.63;1.30;;;;;;;;;;5115123;28;20047;-81
2023/07/23 12:24:23;;;;;;;1.40;1.05;;;;;;;;;;5118239;28;20044;-82
2023/07/23 12:26:52;;;;;;;7.00;1.10;;;;;;;;;;5115235;28;20051;-80
2023/07/23 12:29:19;;;;;;;2.88;1.00;;;;;;;;;;5115403;28;20039;-82
2023/07/23 12:31:47;;;;;;;1.50;1.17;;;;;;;;;;5116008;28;20044;-80
2023/07/23 12:34:15;;;;;;;1.13;1.00;;;;;;;;;;5115256;28;20131;-84
2023/07/23 12:36:43;;;;;;;3.20;1.40;;;;;;;;;;5115119;28;20047;-81
2023/07/23 12:39:11;;;;;;;6.68;1.30;;;;;;;;;;5118054;28;20052;-82
2023/07/23 12:41:38;;;;;;;2.22;1.30;;;;;;;;;;5123387;28;20082;-82
2023/07/23 12:44:06;;;;;;;1.65;1.13;;;;;;;;;;5122439;28;20048;-82
2023/07/23 12:46:33;;;;;;;0.65;0.65;;;;;;;;;;5122721;28;20047;-82
2023/07/23 12:49:00;;;;;;;3.70;1.00;;;;;;;;;;5122208;28;20051;-81
2023/07/23 12:51:28;;;;;;;3.55;1.00;;;;;;;;;;5120201;28;20048;-82
2023/07/23 12:53:55;;;;;;;1.00;1.00;;;;;;;;;;5121961;28;20069;-80
2023/07/23 12:56:22;;;;;;;1.20;1.10;;;;;;;;;;5120570;28;20078;-84
2023/07/23 12:58:49;;;;;;;1.00;1.00;;;;;;;;;;5120784;28;20048;-81
2023/07/23 13:01:17;;;;;;;3.10;1.00;;;;;;;;;;5120117;28;20048;-82
2023/07/23 13:03:44;;;;;;;1.23;0.95;;;;;;;;;;5120072;28;20079;-82
2023/07/23 13:06:11;;;;;;;0.80;0.80;;;;;;;;;;5118968;28;20074;-80
2023/07/23 13:08:39;;;;;;;3.45;1.05;;;;;;;;;;5116210;28;20044;-81
2023/07/23 13:11:07;;;;;;;0.90;0.90;;;;;;;;;;5116999;28;20043;-81
2023/07/23 13:13:34;;;;;;;2.20;1.00;;;;;;;;;;5117878;28;20048;-82
2023/07/23 13:16:02;;;;;;;1.48;0.90;;;;;;;;;;5118131;28;20051;-83
2023/07/23 13:18:30;;;;;;;1.00;1.00;;;;;;;;;;5117922;28;20054;-80
2023/07/23 13:20:57;;;;;;;1.58;1.10;;;;;;;;;;5119953;28;20080;-81
2023/07/23 13:23:24;;;;;;;2.30;0.98;;;;;;;;;;5121294;28;20651;-82
2023/07/23 13:25:52;;;;;;;1.40;1.10;;;;;;;;;;5122571;28;20108;-81
2023/07/23 13:28:19;;;;;;;1.85;1.00;;;;;;;;;;5121329;28;20341;-82
2023/07/23 13:30:46;;;;;;;9.57;0.95;;;;;;;;;;5120649;28;20039;-82
2023/07/23 13:33:16;;;;;;;2.40;0.73;;;;;;;;;;5119102;28;20090;-83
2023/07/23 13:35:44;;;;;;;7.57;1.25;;;;;;;;;;5120145;28;20108;-79
2023/07/23 13:38:11;;;;;;;2.78;0.80;;;;;;;;;;5118533;28;20047;-81
2023/07/23 13:40:39;;;;;;;2.90;0.73;;;;;;;;;;5118181;28;20097;-81
2023/07/23 13:43:07;;;;;;;1.15;1.05;;;;;;;;;;5118347;28;20048;-81
2023/07/23 13:45:34;;;;;;;2.38;0.95;;;;;;;;;;5117049;28;20058;-79
2023/07/23 13:48:01;;;;;;;1.05;0.95;;;;;;;;;;5116472;28;20479;-81
2023/07/23 13:50:28;;;;;;;4.10;1.30;;;;;;;;;;5116581;28;20537;-81
2023/07/23 13:53:16;;;;;;;3.45;0.98;;;;;;;;;;5117120;28;20135;-82
2023/07/23 13:55:43;;;;;;;2.67;0.98;;;;;;;;;;5116439;28;20047;-80
2023/07/23 13:58:10;;;;;;;1.02;0.98;;;;;;;;;;5118884;28;20051;-81
2023/07/23 14:00:37;;;;;;;0.90;0.90;;;;;;;;;;5117277;28;20047;-82
2023/07/23 14:03:05;;;;;;;1.33;1.00;;;;;;;;;;5118173;28;20047;-81
2023/07/23 14:05:32;;;;;;;1.05;1.02;;;;;;;;;;5118723;28;20562;-82
2023/07/23 14:08:00;;;;;;;4.47;1.52;;;;;;;;;;5116877;28;20079;-83
2023/07/23 14:10:27;;;;;;;1.48;0.90;;;;;;;;;;5116268;28;20039;-82
2023/07/23 14:12:54;;;;;;;2.60;1.17;;;;;;;;;;5115286;28;20044;-84
2023/07/23 14:15:22;;;;;;;4.97;1.25;;;;;;;;;;5115610;28;20116;-80
2023/07/23 14:17:49;;;;;;;7.47;1.45;;;;;;;;;;5118463;28;20048;-83
2023/07/23 14:20:16;;;;;;;1.85;1.20;;;;;;;;;;5123185;28;20429;-85
2023/07/23 14:22:43;;;;;;;2.05;1.20;;;;;;;;;;5122087;28;20051;-82
2023/07/23 14:25:11;;;;;;;1.83;1.00;;;;;;;;;;5120099;28;20502;-84
2023/07/23 14:27:38;;;;;;;2.33;1.02;;;;;;;;;;5119562;28;20108;-81
2023/07/23 14:30:06;;;;;;;1.30;1.20;;;;;;;;;;5118541;28;20093;-80
2023/07/23 14:32:33;;;;;;;1.13;1.05;;;;;;;;;;5121086;28;20044;-81
2023/07/23 14:35:00;;;;;;;3.25;1.40;;;;;;;;;;5121099;27;20044;-82
2023/07/23 14:37:27;;;;;;;1.40;1.30;;;;;;;;;;5119995;28;20527;-83
2023/07/23 14:39:55;;;;;;;3.38;1.35;;;;;;;;;;5117440;28;20047;-83
2023/07/23 14:42:22;;;;;;;1.45;1.20;;;;;;;;;;5117550;28;20081;-83
2023/07/23 14:44:51;;;;;;;1.10;1.10;;;;;;;;;;5120354;28;20052;-81
2023/07/23 14:47:18;;;;;;;2.50;1.35;;;;;;;;;;5117098;28;20047;-82
2023/07/23 14:49:45;;;;;;;2.25;1.30;;;;;;;;;;5116740;28;20381;-81